Time;durP1;ratioP1;P1;durP2;ratioP2;P2;SDS_P1;SDS_P2;PMS_P1;PMS_P2;Temp;Humidity;BMP_temperature;BMP_pressure;BME280_temperature;BME280_humidity;BME280_pressure;Samples;Min_cycle;Max_cycle;Signal;HPM_P1;HPM_P2
2022/11/27 00:01:39;;;;;;;19.13;10.73;;;;;;;3.18;100.00;102154.91;5091821;28;20054;-77
2022/11/27 00:04:08;;;;;;;21.05;9.45;;;;;;;3.13;100.00;102149.53;5074472;28;20131;-77
2022/11/27 00:06:36;;;;;;;14.82;10.13;;;;;;;3.09;100.00;102151.09;5067231;27;20100;-78
2022/11/27 00:09:07;;;;;;;12.43;8.27;;;;;;;3.08;100.00;102143.25;5080436;27;20050;-78
2022/11/27 00:11:34;;;;;;;17.48;9.32;;;;;;;3.05;100.00;102143.09;5080086;28;20053;-76
2022/11/27 00:14:01;;;;;;;17.45;9.45;;;;;;;3.03;100.00;102144.75;5090949;28;20043;-78
2022/11/27 00:16:28;;;;;;;19.15;10.75;;;;;;;3.00;100.00;102142.91;5087124;28;20047;-75
2022/11/27 00:18:55;;;;;;;20.42;9.85;;;;;;;3.01;100.00;102146.38;5089982;27;20077;-78
2022/11/27 00:21:29;;;;;;;17.65;9.98;;;;;;;2.97;100.00;102147.91;5081610;28;20501;-79
2022/11/27 00:23:58;;;;;;;18.48;9.88;;;;;;;2.96;100.00;102139.28;5071037;28;20153;-77
2022/11/27 00:26:26;;;;;;;18.45;10.25;;;;;;;2.93;100.00;102133.06;5081361;28;20072;-78
2022/11/27 00:28:52;;;;;;;15.25;9.73;;;;;;;2.89;100.00;102129.44;5078953;28;20143;-78
2022/11/27 00:31:30;;;;;;;13.82;9.30;;;;;;;2.91;100.00;102119.19;5057405;28;20373;-78
2022/11/27 00:34:01;;;;;;;25.27;12.68;;;;;;;2.87;100.00;102118.16;5074033;28;20051;-77
2022/11/27 00:36:30;;;;;;;17.00;9.63;;;;;;;2.82;100.00;102111.91;5072368;28;20045;-77
2022/11/27 00:38:56;;;;;;;20.27;9.63;;;;;;;2.82;100.00;102101.56;5057551;28;20048;-78
2022/11/27 00:41:27;;;;;;;21.85;10.48;;;;;;;2.81;100.00;102103.22;5070855;28;20044;-78
2022/11/27 00:43:54;;;;;;;14.10;9.55;;;;;;;2.79;100.00;102093.63;5078591;28;20040;-78
2022/11/27 00:46:28;;;;;;;15.90;9.57;;;;;;;2.80;100.00;102098.91;5057644;28;20143;-78
2022/11/27 00:48:56;;;;;;;;;;;;;;;2.80;100.00;102103.16;5080892;28;20062;-78
2022/11/27 00:51:24;;;;;;;12.93;8.00;;;;;;;2.77;100.00;102093.56;5074290;28;19920;-78
2022/11/27 00:53:51;;;;;;;20.27;9.07;;;;;;;2.76;100.00;102098.66;5055196;28;20097;-77
2022/11/27 00:56:28;;;;;;;15.60;8.65;;;;;;;2.71;100.00;102098.47;5072112;28;20105;-78
2022/11/27 00:58:56;;;;;;;12.38;8.00;;;;;;;2.71;100.00;102097.56;5075279;28;20032;-77
2022/11/27 01:01:32;;;;;;;16.77;9.55;;;;;;;2.69;100.00;102091.47;5069170;28;20048;-77
2022/11/27 01:04:00;;;;;;;16.88;9.55;;;;;;;2.71;100.00;102094.97;5073290;28;20043;-79
2022/11/27 01:06:28;;;;;;;18.05;8.77;;;;;;;2.71;100.00;102084.63;5073651;28;20467;-78
2022/11/27 01:08:55;;;;;;;17.48;8.75;;;;;;;2.73;100.00;102091.66;5076043;28;20036;-78
2022/11/27 01:11:26;;;;;;;14.40;9.52;;;;;;;2.73;100.00;102089.06;5069971;28;20040;-78
2022/11/27 01:13:56;;;;;;;18.15;9.13;;;;;;;2.71;100.00;102085.53;5076513;28;20051;-77
2022/11/27 01:16:26;;;;;;;12.13;8.35;;;;;;;2.71;100.00;102084.63;5066862;28;20496;-78
2022/11/27 01:18:56;;;;;;;14.07;8.93;;;;;;;2.68;100.00;102076.75;5075669;28;20130;-78
2022/11/27 01:21:25;;;;;;;14.50;8.73;;;;;;;2.68;100.00;102076.75;5064501;28;20101;-78
2022/11/27 01:23:54;;;;;;;16.45;9.93;;;;;;;2.69;100.00;102070.78;5079614;28;20040;-78
2022/11/27 01:26:21;;;;;;;12.82;8.27;;;;;;;2.68;100.00;102067.28;5070522;28;20063;-78
2022/11/27 01:28:51;;;;;;;14.27;9.05;;;;;;;2.67;100.00;102062.06;5092104;28;20051;-77
2022/11/27 01:31:21;;;;;;;16.08;8.63;;;;;;;2.69;100.00;102063.00;5054778;28;20414;-78
2022/11/27 01:33:57;;;;;;;17.05;8.27;;;;;;;2.70;100.00;102068.25;5076778;28;20455;-76
2022/11/27 01:36:24;;;;;;;13.60;8.50;;;;;;;2.73;100.00;102060.63;5058411;28;20051;-78
2022/11/27 01:38:51;;;;;;;15.52;8.50;;;;;;;2.75;100.00;102065.88;5073709;28;20051;-78
2022/11/27 01:41:38;;;;;;;11.35;8.15;;;;;;;2.78;100.00;102073.78;5076137;28;20055;-79
2022/11/27 01:44:23;;;;;;;15.35;8.55;;;;;;;2.79;100.00;102058.31;5058332;28;20058;-77
2022/11/27 01:46:58;;;;;;;15.32;9.15;;;;;;;2.83;100.00;102059.34;5070341;28;20032;-76
2022/11/27 01:49:33;;;;;;;15.93;8.63;;;;;;;2.85;100.00;102044.78;5069868;28;20782;-79
2022/11/27 01:52:11;;;;;;;17.63;8.90;;;;;;;2.87;100.00;102048.34;5079304;28;20056;-78
2022/11/27 01:54:48;;;;;;;15.90;10.43;;;;;;;2.87;100.00;102040.56;5058105;28;20051;-77
2022/11/27 01:57:29;;;;;;;14.13;7.57;;;;;;;2.89;100.00;102051.84;5065612;28;20048;-79
2022/11/27 01:59:58;;;;;;;15.63;9.40;;;;;;;2.93;100.00;102056.38;5076380;28;20051;-80
2022/11/27 02:02:25;;;;;;;12.75;7.55;;;;;;;2.96;100.00;102047.88;5076658;28;20436;-75
2022/11/27 02:04:53;;;;;;;16.35;9.45;;;;;;;2.97;100.00;102045.34;5088254;28;20098;-76
2022/11/27 02:07:20;;;;;;;14.23;8.20;;;;;;;3.01;100.00;102037.72;5074821;28;20083;-77
2022/11/27 02:09:47;;;;;;;14.23;8.32;;;;;;;3.02;100.00;102034.31;5093502;28;20066;-76
2022/11/27 02:12:34;;;;;;;14.13;8.07;;;;;;;3.04;100.00;102049.09;5075377;28;20036;-76
2022/11/27 02:15:19;;;;;;;14.73;7.82;;;;;;;3.06;100.00;102044.84;5075292;28;20508;-76
2022/11/27 02:18:21;;;;;;;14.70;8.90;;;;;;;3.09;100.00;102044.09;5083108;28;20041;-75
2022/11/27 02:21:00;;;;;;;17.15;10.10;;;;;;;3.11;100.00;102042.47;5075694;28;20055;-77
2022/11/27 02:23:36;;;;;;;15.68;8.07;;;;;;;3.13;100.00;102030.50;5073484;28;20043;-77
2022/11/27 02:26:24;;;;;;;13.70;7.93;;;;;;;3.16;100.00;102030.63;5093243;28;20074;-78
2022/11/27 02:29:08;;;;;;;14.70;8.73;;;;;;;3.18;100.00;102030.69;5073308;28;20036;-76
2022/11/27 02:31:56;;;;;;;13.48;7.28;;;;;;;3.16;100.00;102033.22;5071383;28;20107;-78
2022/11/27 02:34:37;;;;;;;11.52;6.72;;;;;;;3.18;100.00;102025.50;5089584;28;20473;-76
2022/11/27 02:37:17;;;;;;;17.27;7.97;;;;;;;3.19;100.00;102010.03;5069202;28;20048;-77
2022/11/27 02:39:57;;;;;;;17.00;8.40;;;;;;;3.21;100.00;102008.41;5073042;28;20046;-77
2022/11/27 02:42:23;;;;;;;14.13;8.02;;;;;;;3.20;100.00;101996.28;5102236;28;20051;-80
2022/11/27 02:45:00;;;;;;;14.73;8.73;;;;;;;3.22;100.00;101996.34;5095442;28;20054;-77
2022/11/27 02:47:29;;;;;;;14.65;8.50;;;;;;;3.18;100.00;101992.78;5057625;28;20047;-76
2022/11/27 02:49:57;;;;;;;15.20;9.98;;;;;;;3.15;100.00;101992.63;5091862;28;20078;-76
2022/11/27 02:52:28;;;;;;;14.35;8.82;;;;;;;3.10;100.00;101988.94;5060206;28;20163;-76
2022/11/27 02:55:00;;;;;;;15.75;9.52;;;;;;;3.05;100.00;101986.19;5071507;28;20040;-76
2022/11/27 02:57:28;;;;;;;14.38;7.60;;;;;;;3.00;100.00;101985.09;5067004;28;20036;-77
2022/11/27 02:59:57;;;;;;;15.32;8.63;;;;;;;2.94;100.00;101980.53;5071111;28;20119;-78
2022/11/27 03:02:35;;;;;;;18.10;9.73;;;;;;;2.89;100.00;101976.84;5084176;28;20036;-76
2022/11/27 03:05:05;;;;;;;13.02;8.45;;;;;;;2.84;100.00;101983.50;5063677;28;20767;-77
2022/11/27 03:07:44;;;;;;;17.42;9.55;;;;;;;2.80;100.00;101979.94;5070868;28;20040;-76
2022/11/27 03:10:30;;;;;;;14.63;8.95;;;;;;;2.74;100.00;101981.38;5051656;28;20037;-75
2022/11/27 03:12:57;;;;;;;13.13;8.20;;;;;;;2.68;100.00;101987.13;5072158;28;20117;-76
2022/11/27 03:15:31;;;;;;;17.58;9.82;;;;;;;2.63;100.00;101976.59;5048569;28;20297;-77
2022/11/27 03:18:12;;;;;;;17.90;8.40;;;;;;;2.59;100.00;101974.66;5067637;28;20055;-77
2022/11/27 03:20:44;;;;;;;13.82;8.02;;;;;;;2.58;100.00;101978.09;5065389;28;20049;-77
2022/11/27 03:23:10;;;;;;;16.33;9.85;;;;;;;2.56;100.00;101976.25;5064115;28;20045;-76
2022/11/27 03:25:37;;;;;;;17.05;8.80;;;;;;;2.52;100.00;101980.38;5070553;28;20047;-75
2022/11/27 03:28:08;;;;;;;15.30;8.98;;;;;;;2.50;100.00;101978.56;5064122;28;20154;-76
2022/11/27 03:30:34;;;;;;;21.30;10.75;;;;;;;2.51;100.00;101972.56;5078391;28;20047;-77
2022/11/27 03:33:02;;;;;;;15.85;10.30;;;;;;;2.51;100.00;101970.84;5066521;28;20062;-77
2022/11/27 03:35:30;;;;;;;16.60;9.27;;;;;;;2.46;100.00;101972.34;5070066;28;20058;-76
2022/11/27 03:37:57;;;;;;;16.83;9.02;;;;;;;2.44;100.00;101980.03;5088465;28;20089;-77
2022/11/27 03:40:48;;;;;;;16.60;8.50;;;;;;;2.44;100.00;101979.16;5070543;28;20402;-77
2022/11/27 03:43:23;;;;;;;14.27;8.88;;;;;;;2.44;100.00;101974.00;5072340;28;20040;-75
2022/11/27 03:46:08;;;;;;;16.83;9.73;;;;;;;2.42;100.00;101966.16;5093564;28;20039;-76
2022/11/27 03:48:59;;;;;;;15.32;9.57;;;;;;;2.40;100.00;101974.66;5073391;28;20116;-75
2022/11/27 03:51:42;;;;;;;16.60;9.52;;;;;;;2.39;100.00;101970.31;5076262;28;20044;-76
2022/11/27 03:54:24;;;;;;;18.35;9.15;;;;;;;2.34;100.00;101964.06;5065994;28;20108;-77
2022/11/27 03:57:17;;;;;;;13.43;9.02;;;;;;;2.33;100.00;101975.19;5065029;28;20490;-79
2022/11/27 03:59:47;;;;;;;15.90;9.88;;;;;;;2.28;100.00;101981.03;5066922;28;20055;-77
2022/11/27 04:02:16;;;;;;;19.75;9.50;;;;;;;2.31;100.00;101977.72;5055294;28;20112;-78
2022/11/27 04:04:43;;;;;;;16.73;9.88;;;;;;;2.28;100.00;101972.38;5070250;28;20047;-78
2022/11/27 04:07:16;;;;;;;16.20;9.68;;;;;;;2.28;100.00;101988.78;5067868;28;20036;-77
2022/11/27 04:09:43;;;;;;;13.63;8.18;;;;;;;2.26;100.00;101986.94;5072648;28;20036;-76
2022/11/27 04:12:09;;;;;;;14.68;8.70;;;;;;;2.21;100.00;101976.38;5075664;28;20043;-77
2022/11/27 04:14:36;;;;;;;16.23;8.77;;;;;;;2.20;100.00;101972.03;5058915;28;20032;-78
2022/11/27 04:17:02;;;;;;;18.10;10.48;;;;;;;2.17;100.00;101965.84;5074559;28;20497;-78
2022/11/27 04:19:29;;;;;;;12.63;8.35;;;;;;;2.15;100.00;101960.59;5089662;28;20032;-78
2022/11/27 04:21:55;;;;;;;20.45;10.85;;;;;;;2.15;100.00;101963.19;5085649;28;20058;-77
2022/11/27 04:24:22;;;;;;;16.67;9.93;;;;;;;2.13;100.00;101959.66;5072580;28;20051;-78
2022/11/27 04:26:48;;;;;;;15.60;8.55;;;;;;;2.11;100.00;101959.59;5089234;28;20063;-78
2022/11/27 04:29:15;;;;;;;16.52;10.02;;;;;;;2.15;100.00;101958.91;5070018;28;20130;-78
2022/11/27 04:31:41;;;;;;;14.48;8.35;;;;;;;2.18;100.00;101958.19;5087717;28;20043;-78
2022/11/27 04:34:08;;;;;;;16.65;9.88;;;;;;;2.19;100.00;101959.03;5073746;28;20035;-77
2022/11/27 04:36:34;;;;;;;13.65;9.30;;;;;;;2.18;100.00;101954.69;5084412;28;20040;-76
2022/11/27 04:39:01;;;;;;;19.45;9.25;;;;;;;2.15;100.00;101960.59;5090367;28;20040;-76
2022/11/27 04:41:28;;;;;;;15.93;8.60;;;;;;;2.14;100.00;101956.25;5089804;28;20032;-78
2022/11/27 04:43:54;;;;;;;14.45;8.77;;;;;;;2.15;100.00;101951.16;5101079;28;20047;-76
2022/11/27 04:46:21;;;;;;;13.27;8.40;;;;;;;2.17;100.00;101950.34;5087371;28;20069;-77
2022/11/27 04:48:48;;;;;;;12.73;8.00;;;;;;;2.13;100.00;101951.91;5073226;28;20046;-79
2022/11/27 04:51:15;;;;;;;13.60;8.30;;;;;;;2.11;100.00;101948.34;5090282;28;20047;-76
2022/11/27 04:53:41;;;;;;;14.23;9.05;;;;;;;2.17;100.00;101947.78;5090327;28;20679;-79
2022/11/27 04:56:08;;;;;;;13.50;7.72;;;;;;;2.17;100.00;101952.94;5095085;28;20044;-76
2022/11/27 04:58:34;;;;;;;15.65;8.73;;;;;;;2.20;100.00;101941.03;5082362;28;20039;-78
2022/11/27 05:01:01;;;;;;;17.23;8.57;;;;;;;2.18;100.00;101934.91;5099818;28;20034;-77
2022/11/27 05:03:28;;;;;;;14.88;9.25;;;;;;;2.18;100.00;101927.16;5110275;28;20040;-76
2022/11/27 05:05:58;;;;;;;13.00;7.30;;;;;;;2.20;100.00;101927.25;5073866;28;20050;-76
2022/11/27 05:08:25;;;;;;;13.32;8.15;;;;;;;2.21;100.00;101918.69;5083586;28;20051;-78
2022/11/27 05:11:12;;;;;;;17.77;7.55;;;;;;;2.20;100.00;101930.69;5082992;28;20032;-76
2022/11/27 05:13:40;;;;;;;14.23;7.90;;;;;;;2.19;100.00;101925.47;5086211;28;20119;-76
2022/11/27 05:16:07;;;;;;;15.57;7.70;;;;;;;2.21;100.00;101918.69;5084623;28;20051;-78
2022/11/27 05:18:33;;;;;;;16.13;8.07;;;;;;;2.25;100.00;101918.00;5089008;28;20040;-76
2022/11/27 05:21:03;;;;;;;14.77;8.15;;;;;;;2.28;100.00;101910.38;5084674;28;20078;-77
2022/11/27 05:23:31;;;;;;;12.13;7.45;;;;;;;2.26;100.00;101907.72;5058927;28;20052;-77
2022/11/27 05:25:58;;;;;;;11.45;7.47;;;;;;;2.28;100.00;101907.78;5066680;28;20062;-77
2022/11/27 05:28:25;;;;;;;13.25;7.45;;;;;;;2.29;100.00;101894.97;5077682;28;20051;-77
2022/11/27 05:30:51;;;;;;;15.38;8.00;;;;;;;2.25;100.00;101880.13;5063923;28;20073;-79
2022/11/27 05:33:21;;;;;;;13.95;7.30;;;;;;;2.27;100.00;101872.47;5055533;28;20048;-76
2022/11/27 05:35:47;;;;;;;11.80;7.13;;;;;;;2.25;100.00;101877.53;5071656;28;20047;-78
2022/11/27 05:38:14;;;;;;;11.15;7.30;;;;;;;2.23;100.00;101880.84;5060891;28;20402;-78
2022/11/27 05:40:41;;;;;;;9.48;6.15;;;;;;;2.15;100.00;101873.66;5073740;28;20032;-78
2022/11/27 05:43:07;;;;;;;11.68;5.88;;;;;;;2.14;100.00;101873.59;5077005;28;20047;-77
2022/11/27 05:45:35;;;;;;;24.15;9.40;;;;;;;2.11;100.00;101865.69;5069923;28;20044;-76
2022/11/27 05:48:01;;;;;;;12.95;6.55;;;;;;;2.08;100.00;101865.56;5054526;28;20084;-78
2022/11/27 05:50:28;;;;;;;13.50;7.30;;;;;;;2.08;100.00;101870.72;5067640;28;20119;-79
2022/11/27 05:52:54;;;;;;;12.77;6.90;;;;;;;2.03;100.00;101869.63;5076101;28;20040;-76
2022/11/27 05:55:21;;;;;;;13.68;7.47;;;;;;;2.03;100.00;101867.06;5058221;28;20054;-78
2022/11/27 05:57:47;;;;;;;10.05;6.65;;;;;;;2.04;100.00;101861.94;5082089;28;20044;-77
2022/11/27 06:00:15;;;;;;;13.55;6.80;;;;;;;2.05;100.00;101861.16;5060868;28;20044;-77
2022/11/27 06:02:41;;;;;;;13.68;7.38;;;;;;;2.08;100.00;101847.47;5091675;28;20245;-76
2022/11/27 06:05:08;;;;;;;12.80;6.88;;;;;;;2.09;100.00;101857.00;5078293;28;20042;-79
2022/11/27 06:07:35;;;;;;;21.38;8.68;;;;;;;2.11;100.00;101851.09;5079244;28;20047;-78
2022/11/27 06:10:01;;;;;;;12.93;6.60;;;;;;;2.12;100.00;101850.25;5077565;28;20036;-76
2022/11/27 06:12:28;;;;;;;11.00;6.57;;;;;;;2.11;100.00;101852.78;5066467;28;20451;-78
2022/11/27 06:14:55;;;;;;;8.40;5.82;;;;;;;2.12;100.00;101849.38;5077000;28;20122;-76
2022/11/27 06:17:21;;;;;;;13.63;5.45;;;;;;;2.13;100.00;101846.00;5074013;28;20051;-78
2022/11/27 06:19:47;;;;;;;11.75;6.32;;;;;;;2.15;100.00;101840.09;5073937;28;20098;-78
2022/11/27 06:22:14;;;;;;;13.73;8.32;;;;;;;2.17;100.00;101844.44;5084837;28;20067;-75
2022/11/27 06:24:41;;;;;;;6.47;4.97;;;;;;;2.15;100.00;101852.09;5072296;28;20050;-78
2022/11/27 06:27:07;;;;;;;9.25;5.78;;;;;;;2.13;100.00;101856.31;5084786;28;20036;-79
2022/11/27 06:29:34;;;;;;;10.45;5.80;;;;;;;2.14;100.00;101851.22;5083878;28;20106;-78
2022/11/27 06:32:00;;;;;;;10.15;5.93;;;;;;;2.14;100.00;101856.38;5084826;28;20715;-76
2022/11/27 06:34:27;;;;;;;11.68;6.35;;;;;;;2.14;100.00;101848.63;5074283;28;20301;-80
2022/11/27 06:36:53;;;;;;;9.93;5.68;;;;;;;2.13;100.00;101852.03;5092082;28;20630;-78
2022/11/27 06:39:20;;;;;;;13.30;6.22;;;;;;;2.14;100.00;101843.47;5087076;28;20138;-77
2022/11/27 06:41:46;;;;;;;9.25;4.85;;;;;;;2.12;100.00;101845.09;5072924;28;20044;-76
2022/11/27 06:44:13;;;;;;;9.45;5.85;;;;;;;2.13;100.00;101838.25;5091979;28;20029;-77
2022/11/27 06:46:39;;;;;;;11.80;5.45;;;;;;;2.22;100.00;101830.03;5092426;28;20059;-76
2022/11/27 06:49:06;;;;;;;11.43;5.55;;;;;;;2.24;100.00;101830.97;5096202;28;20067;-77
2022/11/27 06:51:33;;;;;;;11.55;5.90;;;;;;;2.23;100.00;101829.19;5097465;28;20032;-78
2022/11/27 06:54:01;;;;;;;13.93;7.00;;;;;;;2.21;100.00;101836.00;5081400;28;20127;-76
2022/11/27 06:56:30;;;;;;;8.93;5.53;;;;;;;2.23;100.00;101839.53;5097548;28;20044;-78
2022/11/27 06:59:00;;;;;;;10.75;7.03;;;;;;;2.24;100.00;101841.28;5096195;28;20039;-76
2022/11/27 07:01:29;;;;;;;11.45;6.35;;;;;;;2.24;100.00;101834.44;5088869;28;20051;-77
2022/11/27 07:03:56;;;;;;;11.77;6.22;;;;;;;2.23;100.00;101837.84;5090199;28;20043;-76
2022/11/27 07:06:25;;;;;;;15.00;6.68;;;;;;;2.25;100.00;101836.19;5086568;28;20045;-76
2022/11/27 07:08:54;;;;;;;10.43;6.35;;;;;;;2.29;100.00;101826.88;5093713;28;20046;-76
2022/11/27 07:11:25;;;;;;;9.65;6.78;;;;;;;2.34;100.00;101827.97;5092509;28;20119;-78
2022/11/27 07:13:54;;;;;;;10.70;6.80;;;;;;;2.35;100.00;101826.25;5094201;28;20040;-76
2022/11/27 07:16:21;;;;;;;11.98;6.22;;;;;;;2.41;100.00;101829.13;5089456;28;20040;-76
2022/11/27 07:18:51;;;;;;;13.38;8.27;;;;;;;2.48;100.00;101826.88;5074805;28;20044;-76
2022/11/27 07:21:18;;;;;;;11.15;6.55;;;;;;;2.48;100.00;101813.94;5062292;28;20072;-79
2022/11/27 07:23:45;;;;;;;15.43;6.78;;;;;;;2.51;100.00;101818.34;5081792;28;20048;-75
2022/11/27 07:26:25;;;;;;;11.73;7.10;;;;;;;2.53;100.00;101813.25;5075568;28;20039;-76
2022/11/27 07:28:52;;;;;;;12.65;6.82;;;;;;;2.58;100.00;101819.50;5071613;28;20046;-79
2022/11/27 07:31:22;;;;;;;11.75;6.68;;;;;;;2.58;100.00;101820.41;5075848;28;20119;-78
2022/11/27 07:33:52;;;;;;;13.80;7.00;;;;;;;2.59;100.00;101821.28;5074654;28;20127;-80
2022/11/27 07:36:24;;;;;;;14.15;7.53;;;;;;;2.64;100.00;101825.81;5056505;28;20056;-78
2022/11/27 07:38:51;;;;;;;12.35;7.40;;;;;;;2.63;100.00;101818.00;5071723;28;20094;-78
2022/11/27 07:41:18;;;;;;;14.88;6.82;;;;;;;2.63;100.00;101821.47;5077832;28;20100;-77
2022/11/27 07:43:45;;;;;;;13.55;6.68;;;;;;;2.68;100.00;101811.31;5071700;28;20074;-79
2022/11/27 07:46:21;;;;;;;12.70;6.53;;;;;;;2.71;100.00;101814.06;5085064;28;20867;-79
2022/11/27 07:48:48;;;;;;;14.93;8.02;;;;;;;2.72;100.00;101807.16;5057636;28;20499;-78
2022/11/27 07:51:18;;;;;;;12.75;7.85;;;;;;;2.75;100.00;101810.75;5071742;28;20047;-77
2022/11/27 07:53:45;;;;;;;11.85;6.63;;;;;;;2.80;100.00;101801.50;5086541;28;20044;-77
2022/11/27 07:56:14;;;;;;;13.90;7.40;;;;;;;2.83;100.00;101798.16;5074728;28;20068;-76
2022/11/27 07:58:41;;;;;;;10.15;6.75;;;;;;;2.88;100.00;101803.50;5073550;28;20044;-77
2022/11/27 08:01:11;;;;;;;10.68;5.70;;;;;;;2.92;100.00;101803.69;5057643;28;20052;-77
2022/11/27 08:03:38;;;;;;;9.75;7.88;;;;;;;2.91;100.00;101796.75;5053669;28;20050;-77
2022/11/27 08:06:13;;;;;;;9.98;6.85;;;;;;;2.94;100.00;101796.88;5072950;28;20043;-78
2022/11/27 08:08:40;;;;;;;16.77;7.55;;;;;;;2.98;100.00;101801.34;5069094;28;20467;-77
2022/11/27 08:11:06;;;;;;;15.00;7.70;;;;;;;3.02;100.00;101799.78;5072941;28;20040;-78
2022/11/27 08:13:33;;;;;;;14.43;7.65;;;;;;;3.12;100.00;101804.50;5071480;28;20048;-76
2022/11/27 08:15:59;;;;;;;12.75;7.05;;;;;;;3.18;100.00;101808.16;5070539;28;20115;-78
2022/11/27 08:18:26;;;;;;;11.23;6.95;;;;;;;3.26;100.00;101804.16;5071651;28;20050;-77
2022/11/27 08:20:52;;;;;;;18.52;7.10;;;;;;;3.34;100.00;101807.03;5088188;28;20052;-78
2022/11/27 08:23:19;;;;;;;10.55;6.28;;;;;;;3.44;100.00;101804.91;5071496;28;20401;-78
2022/11/27 08:25:45;;;;;;;9.27;5.88;;;;;;;3.57;100.00;101798.50;5090902;28;20457;-77
2022/11/27 08:28:12;;;;;;;13.25;7.18;;;;;;;3.67;100.00;101802.28;5064863;28;20146;-76
2022/11/27 08:30:39;;;;;;;8.80;6.28;;;;;;;3.76;100.00;101805.22;5069253;28;20071;-76
2022/11/27 08:33:05;;;;;;;9.82;6.10;;;;;;;3.86;100.00;101803.88;5068267;28;20072;-78
2022/11/27 08:35:32;;;;;;;10.20;6.90;;;;;;;3.95;100.00;101812.00;5054491;28;20039;-78
2022/11/27 08:37:58;;;;;;;7.70;6.30;;;;;;;4.01;100.00;101794.91;5072499;28;20072;-78
2022/11/27 08:40:25;;;;;;;16.20;7.00;;;;;;;4.05;100.00;101794.19;5062633;28;20044;-76
2022/11/27 08:42:51;;;;;;;13.90;5.88;;;;;;;4.07;100.00;101788.22;5071566;28;20048;-76
2022/11/27 08:45:18;;;;;;;11.20;6.63;;;;;;;4.07;100.00;101790.81;5070561;28;20624;-78
2022/11/27 08:47:44;;;;;;;8.38;5.10;;;;;;;4.08;100.00;101794.28;5063825;28;20047;-76
2022/11/27 08:50:11;;;;;;;8.70;5.53;;;;;;;4.07;100.00;101788.22;5076217;28;20810;-78
2022/11/27 08:52:37;;;;;;;9.82;5.88;;;;;;;4.10;100.00;101793.50;5047691;28;20040;-78
2022/11/27 08:55:04;;;;;;;6.53;5.20;;;;;;;4.14;100.00;101779.84;5059063;28;20123;-78
2022/11/27 08:57:31;;;;;;;10.93;6.50;;;;;;;4.17;100.00;101776.47;5082515;28;20040;-75
2022/11/27 08:59:57;;;;;;;11.82;5.82;;;;;;;4.19;100.00;101777.41;5071726;28;20047;-77
2022/11/27 09:02:24;;;;;;;12.55;5.78;;;;;;;4.23;100.00;101773.22;5072547;28;20047;-79
2022/11/27 09:04:50;;;;;;;5.55;4.95;;;;;;;4.28;100.00;101762.19;5069213;28;20393;-76
2022/11/27 09:07:17;;;;;;;9.95;5.13;;;;;;;4.34;100.00;101766.72;5069578;28;20040;-78
2022/11/27 09:09:43;;;;;;;8.40;5.82;;;;;;;4.42;100.00;101766.94;5070133;28;20101;-78
2022/11/27 09:12:10;;;;;;;7.75;5.30;;;;;;;4.48;100.00;101754.22;5065721;28;20047;-77
2022/11/27 09:14:37;;;;;;;9.00;5.25;;;;;;;4.56;100.00;101755.38;5070395;28;20039;-78
2022/11/27 09:17:05;;;;;;;8.55;5.15;;;;;;;4.64;100.00;101748.72;5071488;28;20040;-78
2022/11/27 09:19:31;;;;;;;10.40;4.63;;;;;;;4.73;100.00;101752.44;5087072;28;20036;-79
2022/11/27 09:21:58;;;;;;;9.10;5.40;;;;;;;4.78;100.00;101749.19;5069996;28;20562;-76
2022/11/27 09:24:24;;;;;;;10.50;5.70;;;;;;;4.84;100.00;101743.28;5065162;28;20063;-77
2022/11/27 09:26:51;;;;;;;11.43;5.85;;;;;;;4.87;100.00;101740.78;5056918;28;20043;-76
2022/11/27 09:29:18;;;;;;;9.93;5.20;;;;;;;4.88;100.00;101739.97;5058478;28;20043;-79
2022/11/27 09:31:44;;;;;;;8.82;5.88;;;;;;;4.86;100.00;101738.16;5080798;28;20110;-76
2022/11/27 09:34:11;;;;;;;8.60;5.18;;;;;;;4.82;100.00;101737.16;5079703;28;20445;-79
2022/11/27 09:36:37;;;;;;;9.45;5.47;;;;;;;4.76;100.00;101737.84;5077371;28;20043;-77
2022/11/27 09:39:04;;;;;;;11.80;6.18;;;;;;;4.69;100.00;101747.97;5078077;28;20040;-77
2022/11/27 09:41:57;;;;;;;10.43;5.78;;;;;;;4.61;100.00;101740.81;5075915;28;20132;-77
2022/11/27 09:44:27;;;;;;;11.80;5.38;;;;;;;4.61;100.00;101727.84;5093750;28;20052;-79
2022/11/27 09:46:55;;;;;;;9.43;5.32;;;;;;;4.67;100.00;101719.41;5084717;28;20086;-77
2022/11/27 09:49:39;;;;;;;9.52;6.18;;;;;;;4.78;100.00;101718.03;5075612;28;20048;-78
2022/11/27 09:52:22;;;;;;;11.32;5.85;;;;;;;4.91;100.00;101708.03;5076761;28;20048;-78
2022/11/27 09:54:57;;;;;;;9.00;6.30;;;;;;;5.04;100.00;101717.09;5090266;28;20052;-77
2022/11/27 09:57:36;;;;;;;8.45;4.57;;;;;;;5.12;100.00;101720.78;5074649;28;20046;-79
2022/11/27 10:00:18;;;;;;;9.60;5.15;;;;;;;5.24;100.00;101725.47;5069177;28;20047;-77
2022/11/27 10:02:45;;;;;;;9.52;5.60;;;;;;;5.33;100.00;101717.97;5072710;28;20140;-77
2022/11/27 10:05:23;;;;;;;8.60;4.85;;;;;;;5.46;100.00;101712.31;5074618;28;20036;-77
2022/11/27 10:08:08;;;;;;;10.52;5.32;;;;;;;5.59;100.00;101707.47;5076155;28;20136;-78
2022/11/27 10:11:08;;;;;;;7.85;4.82;;;;;;;5.71;100.00;101700.03;5093454;28;20384;-77
2022/11/27 10:13:58;;;;;;;8.95;5.93;;;;;;;5.84;100.00;101692.56;5070214;28;20045;-77
2022/11/27 10:16:41;;;;;;;7.65;5.28;;;;;;;5.85;100.00;101692.59;5092972;28;20751;-77
2022/11/27 10:19:52;;;;;;;9.90;6.13;;;;;;;5.83;99.68;101683.00;5072298;28;20649;-77
2022/11/27 10:22:33;;;;;;;10.93;6.85;;;;;;;5.82;100.00;101671.72;5061818;28;20969;-76
2022/11/27 10:25:36;;;;;;;10.32;5.82;;;;;;;5.87;100.00;101664.94;5072972;28;20054;-76
2022/11/27 10:28:33;;;;;;;11.98;6.15;;;;;;;5.93;100.00;101662.50;5071205;28;20494;-77
2022/11/27 10:31:31;;;;;;;14.60;6.55;;;;;;;6.02;100.00;101668.81;5077818;28;20614;-78
2022/11/27 10:34:07;;;;;;;9.48;5.93;;;;;;;6.05;99.84;101661.97;5070807;28;20146;-77
2022/11/27 10:36:40;;;;;;;13.68;7.32;;;;;;;6.10;99.49;101668.19;5056995;28;20055;-78
2022/11/27 10:39:24;;;;;;;8.80;6.03;;;;;;;6.15;99.16;101670.88;5073114;28;20402;-75
2022/11/27 10:42:09;;;;;;;10.18;5.57;;;;;;;6.19;99.37;101670.16;5072776;28;20045;-77
2022/11/27 10:44:43;;;;;;;10.63;6.43;;;;;;;6.21;98.99;101655.44;5085565;28;20068;-79
2022/11/27 10:47:14;;;;;;;14.35;6.85;;;;;;;6.20;98.46;101660.59;5064951;28;20044;-77
2022/11/27 10:49:42;;;;;;;7.93;5.65;;;;;;;6.17;98.14;101661.41;5056981;28;20126;-76
2022/11/27 10:52:16;;;;;;;10.15;6.35;;;;;;;6.13;99.15;101655.25;5074009;28;20493;-78
2022/11/27 10:55:08;;;;;;;14.18;5.95;;;;;;;6.15;98.46;101655.28;5054244;28;20044;-78
2022/11/27 10:58:17;;;;;;;13.48;5.45;;;;;;;6.19;99.07;101646.75;5089681;28;20102;-78
2022/11/27 11:00:45;;;;;;;10.00;5.93;;;;;;;6.22;98.75;101639.00;5089637;28;20043;-78
2022/11/27 11:03:17;;;;;;;8.35;6.15;;;;;;;6.26;98.35;101643.44;5072108;28;20036;-78
2022/11/27 11:05:58;;;;;;;7.78;5.95;;;;;;;6.32;98.81;101634.03;5071811;28;20043;-79
2022/11/27 11:08:25;;;;;;;12.70;6.90;;;;;;;6.31;98.00;101635.75;5071509;28;20056;-77
2022/11/27 11:11:04;;;;;;;10.02;5.47;;;;;;;6.35;98.05;101636.69;5063105;28;20066;-76
2022/11/27 11:13:33;;;;;;;10.75;5.50;;;;;;;6.37;97.81;101625.47;5070903;28;20075;-75
2022/11/27 11:16:16;;;;;;;8.70;5.28;;;;;;;6.40;97.18;101630.78;5072859;28;20048;-77
2022/11/27 11:18:55;;;;;;;8.02;4.55;;;;;;;6.44;97.58;101626.50;5064327;28;20383;-78
2022/11/27 11:21:31;;;;;;;12.43;4.97;;;;;;;6.49;97.11;101621.44;5068904;28;20056;-77
2022/11/27 11:24:21;;;;;;;6.45;5.03;;;;;;;6.52;95.94;101627.59;5064393;28;20048;-77
2022/11/27 11:26:52;;;;;;;10.10;4.65;;;;;;;6.59;96.38;101624.25;5072525;28;20052;-76
2022/11/27 11:29:35;;;;;;;7.05;5.43;;;;;;;6.66;95.90;101621.81;5069170;28;20054;-77
2022/11/27 11:32:17;;;;;;;11.45;4.82;;;;;;;6.73;94.93;101619.38;5052616;28;20048;-77
2022/11/27 11:34:47;;;;;;;6.85;4.85;;;;;;;6.79;95.13;101606.53;5069161;28;20043;-76
2022/11/27 11:37:33;;;;;;;9.18;5.50;;;;;;;6.83;94.54;101604.88;5070935;28;20443;-77
2022/11/27 11:40:07;;;;;;;8.23;5.68;;;;;;;6.88;93.77;101604.94;5069422;28;20127;-75